createdAt,value
2022-10-22T00:01:03.849Z,5.73
2022-10-22T00:03:30.622Z,5.77
2022-10-22T00:05:57.297Z,5.50
2022-10-22T00:08:24.056Z,5.63
2022-10-22T00:10:50.828Z,5.13
2022-10-22T00:13:17.602Z,4.93
2022-10-22T00:15:44.313Z,5.20
2022-10-22T00:18:11.294Z,5.30
2022-10-22T00:20:37.976Z,5.73
2022-10-22T00:23:04.834Z,5.07
2022-10-22T00:25:33.837Z,5.07
2022-10-22T00:28:00.498Z,5.57
2022-10-22T00:30:28.783Z,5.67
2022-10-22T00:32:55.446Z,5.33
2022-10-22T00:35:22.111Z,6.60
2022-10-22T00:37:48.766Z,5.80
2022-10-22T00:40:15.456Z,6.77
2022-10-22T00:42:42.624Z,7.20
2022-10-22T00:45:09.638Z,7.10
2022-10-22T00:47:42.912Z,6.00
2022-10-22T00:50:15.727Z,5.10
2022-10-22T00:52:42.777Z,5.30
2022-10-22T00:55:09.933Z,6.07
2022-10-22T00:57:36.978Z,5.40
2022-10-22T01:00:05.810Z,5.00
2022-10-22T01:02:32.909Z,4.67
2022-10-22T01:04:59.841Z,5.33
2022-10-22T01:07:26.814Z,5.33
2022-10-22T01:10:05.391Z,4.80
2022-10-22T01:12:50.705Z,5.10
2022-10-22T01:15:28.899Z,5.00
2022-10-22T01:18:12.456Z,5.37
2022-10-22T01:21:10.508Z,4.40
2022-10-22T01:24:01.796Z,4.90
2022-10-22T01:26:56.208Z,5.03
2022-10-22T01:29:29.305Z,4.57
2022-10-22T01:32:04.708Z,4.83
2022-10-22T01:34:33.443Z,5.37
2022-10-22T01:37:01.749Z,5.27
2022-10-22T01:39:30.924Z,5.27
2022-10-22T01:41:59.097Z,5.20
2022-10-22T01:44:34.146Z,5.30
2022-10-22T01:47:32.424Z,4.67
2022-10-22T01:50:30.903Z,5.57
2022-10-22T01:53:24.083Z,4.83
2022-10-22T01:56:02.987Z,5.40
2022-10-22T01:58:42.320Z,4.70
2022-10-22T02:01:41.438Z,5.40
2022-10-22T02:04:18.321Z,4.73
2022-10-22T02:06:46.919Z,4.83
2022-10-22T02:09:16.146Z,4.63
2022-10-22T02:11:44.147Z,5.30
2022-10-22T02:14:11.706Z,4.67
2022-10-22T02:16:44.658Z,5.00
2022-10-22T02:19:17.975Z,6.53
2022-10-22T02:21:45.075Z,6.97
2022-10-22T02:24:12.311Z,5.70
2022-10-22T02:27:03.882Z,4.97
2022-10-22T02:29:44.607Z,5.83
2022-10-22T02:32:16.412Z,6.10
2022-10-22T02:34:43.524Z,5.50
2022-10-22T02:37:10.409Z,5.27
2022-10-22T02:39:38.525Z,5.80
2022-10-22T02:42:05.352Z,5.17
2022-10-22T02:44:32.120Z,5.27
2022-10-22T02:46:59.743Z,5.70
2022-10-22T02:49:26.745Z,5.43
2022-10-22T02:51:53.488Z,5.50
2022-10-22T02:54:20.228Z,5.83
2022-10-22T02:56:46.946Z,5.00
2022-10-22T02:59:13.652Z,4.80
2022-10-22T03:01:40.347Z,5.40
2022-10-22T03:04:07.299Z,5.30
2022-10-22T03:06:34.027Z,5.20
2022-10-22T03:09:00.832Z,4.87
2022-10-22T03:11:27.590Z,5.43
2022-10-22T03:13:54.372Z,4.83
2022-10-22T03:16:21.074Z,5.07
2022-10-22T03:18:47.774Z,5.93
2022-10-22T03:21:40.288Z,7.53
2022-10-22T03:24:13.324Z,4.83
2022-10-22T03:26:41.541Z,4.73
2022-10-22T03:29:10.387Z,4.73
2022-10-22T03:31:37.157Z,6.17
2022-10-22T03:34:03.899Z,18.33
2022-10-22T03:36:31.766Z,12.93
2022-10-22T03:39:00.122Z,11.47
2022-10-22T03:41:27.449Z,9.80
2022-10-22T03:43:54.657Z,9.63
2022-10-22T03:46:21.349Z,8.73
2022-10-22T03:48:48.040Z,8.43
2022-10-22T03:51:14.942Z,7.57
2022-10-22T03:53:41.707Z,7.07
2022-10-22T03:56:10.423Z,7.13
2022-10-22T03:58:38.505Z,6.53
2022-10-22T04:01:07.452Z,6.80
2022-10-22T04:03:34.574Z,5.97
2022-10-22T04:06:07.586Z,6.20
2022-10-22T04:08:34.801Z,6.03
2022-10-22T04:11:01.754Z,6.27
2022-10-22T04:13:28.537Z,6.77
2022-10-22T04:15:55.339Z,6.27
2022-10-22T04:18:23.319Z,6.40
2022-10-22T04:20:52.145Z,7.13
2022-10-22T04:23:18.880Z,6.33
2022-10-22T04:25:45.603Z,5.90
2022-10-22T04:28:12.353Z,6.03
2022-10-22T04:30:39.090Z,5.43
2022-10-22T04:33:05.804Z,5.87
2022-10-22T04:35:32.496Z,5.47
2022-10-22T04:37:59.219Z,5.57
2022-10-22T04:40:25.937Z,5.03
2022-10-22T04:42:52.627Z,5.60
2022-10-22T04:45:19.307Z,5.57
2022-10-22T04:47:46.031Z,5.60
2022-10-22T04:50:12.754Z,5.43
2022-10-22T04:52:39.467Z,5.30
2022-10-22T04:55:06.585Z,7.65
2022-10-22T04:57:33.445Z,6.00
2022-10-22T05:00:00.144Z,5.50
2022-10-22T05:02:26.831Z,5.20
2022-10-22T05:04:53.549Z,5.80
2022-10-22T05:07:20.297Z,6.20
2022-10-22T05:09:46.980Z,6.20
2022-10-22T05:12:13.652Z,6.10
2022-10-22T05:14:43.993Z,7.40
2022-10-22T05:17:11.783Z,5.90
2022-10-22T05:19:38.522Z,6.80
2022-10-22T05:22:05.589Z,7.60
2022-10-22T05:24:34.342Z,6.80
2022-10-22T05:27:01.042Z,7.40
2022-10-22T05:29:28.009Z,7.23
2022-10-22T05:31:54.983Z,6.70
2022-10-22T05:34:21.890Z,7.87
2022-10-22T05:36:48.577Z,7.47
2022-10-22T05:39:15.473Z,6.60
2022-10-22T05:41:42.272Z,5.70
2022-10-22T05:44:11.999Z,5.50
2022-10-22T05:46:38.742Z,5.67
2022-10-22T05:49:06.901Z,5.03
2022-10-22T05:51:37.243Z,4.30
2022-10-22T05:54:07.458Z,4.50
2022-10-22T05:56:34.699Z,5.37
2022-10-22T06:01:37.506Z,6.00
2022-10-22T06:04:07.454Z,5.03
2022-10-22T06:06:48.834Z,5.33
2022-10-22T06:09:29.384Z,5.20
2022-10-22T06:11:57.299Z,5.13
2022-10-22T06:14:25.076Z,5.40
2022-10-22T06:16:52.279Z,4.73
2022-10-22T06:19:21.707Z,5.07
2022-10-22T06:21:48.888Z,4.60
2022-10-22T06:24:16.034Z,4.87
2022-10-22T06:26:42.845Z,4.57
2022-10-22T06:29:09.839Z,4.63
2022-10-22T06:31:37.072Z,4.20
2022-10-22T06:34:10.036Z,4.27
2022-10-22T06:36:37.265Z,3.80
2022-10-22T06:39:04.492Z,3.73
2022-10-22T06:41:31.394Z,3.10
2022-10-22T06:43:58.342Z,3.13
2022-10-22T06:46:26.170Z,4.00
2022-10-22T06:49:00.936Z,3.87
2022-10-22T06:51:28.493Z,5.47
2022-10-22T06:53:56.952Z,3.97
2022-10-22T06:56:26.479Z,4.80
2022-10-22T06:58:55.448Z,4.23
2022-10-22T07:01:31.309Z,4.37
2022-10-22T07:03:58.170Z,4.00
2022-10-22T07:06:26.047Z,3.77
2022-10-22T07:08:54.622Z,3.90
2022-10-22T07:11:30.792Z,3.73
2022-10-22T07:13:59.473Z,2.30
2022-10-22T07:16:29.668Z,3.10
2022-10-22T07:18:59.698Z,2.33
2022-10-22T07:21:26.394Z,1.80
2022-10-22T07:23:53.109Z,2.80
2022-10-22T07:26:20.445Z,3.13
2022-10-22T07:28:47.767Z,2.67
2022-10-22T07:31:17.934Z,2.47
2022-10-22T07:33:48.185Z,2.47
2022-10-22T07:36:20.173Z,1.45
2022-10-22T07:38:49.412Z,1.23
2022-10-22T07:41:17.589Z,1.10
2022-10-22T07:43:46.108Z,0.85
2022-10-22T07:46:13.311Z,1.27
2022-10-22T07:48:40.106Z,1.00
2022-10-22T07:51:07.338Z,0.90
2022-10-22T07:53:34.262Z,1.20
2022-10-22T07:56:01.056Z,1.00
2022-10-22T07:58:27.749Z,1.38
2022-10-22T08:01:01.011Z,1.10
2022-10-22T08:03:29.158Z,1.42
2022-10-22T08:05:55.910Z,1.27
2022-10-22T08:08:25.865Z,1.10
2022-10-22T08:10:56.835Z,1.15
2022-10-22T08:13:23.967Z,1.10
2022-10-22T08:15:52.461Z,1.15
2022-10-22T08:18:23.027Z,0.90
2022-10-22T08:20:49.680Z,1.23
2022-10-22T08:23:16.620Z,1.00
2022-10-22T08:25:43.323Z,1.63
2022-10-22T08:28:09.991Z,1.20
2022-10-22T08:30:38.643Z,1.48
2022-10-22T08:33:06.194Z,1.35
2022-10-22T08:35:32.889Z,1.75
2022-10-22T08:37:59.598Z,1.60
2022-10-22T08:40:32.786Z,1.48
2022-10-22T08:43:08.366Z,1.23
2022-10-22T08:46:03.376Z,1.08
2022-10-22T08:48:48.295Z,1.00
2022-10-22T08:51:26.473Z,1.00
2022-10-22T08:54:12.015Z,1.00
2022-10-22T08:56:41.887Z,0.90
2022-10-22T08:59:23.321Z,0.90
2022-10-22T09:01:53.752Z,0.80
2022-10-22T09:04:29.324Z,0.85
2022-10-22T09:06:58.383Z,0.95
2022-10-22T09:09:30.158Z,1.13
2022-10-22T09:11:59.752Z,1.42
2022-10-22T09:14:27.332Z,0.85
2022-10-22T09:17:15.131Z,0.90
2022-10-22T09:20:26.238Z,0.90
2022-10-22T09:23:04.660Z,0.93
2022-10-22T09:25:33.667Z,1.50
2022-10-22T09:28:00.374Z,1.05
2022-10-22T09:30:35.172Z,1.05
2022-10-22T09:33:05.883Z,1.30
2022-10-22T09:35:56.215Z,1.00
2022-10-22T09:38:29.541Z,0.80
2022-10-22T09:40:59.311Z,0.70
2022-10-22T09:43:26.254Z,1.10
2022-10-22T09:45:58.695Z,0.55
2022-10-22T09:48:39.118Z,0.90
2022-10-22T09:51:41.690Z,0.60
2022-10-22T09:54:34.263Z,0.73
2022-10-22T09:57:17.769Z,0.80
2022-10-22T09:59:47.999Z,0.52
2022-10-22T10:02:20.024Z,0.75
2022-10-22T10:04:56.323Z,0.60
2022-10-22T10:07:30.358Z,0.88
2022-10-22T10:09:57.306Z,0.65
2022-10-22T10:15:22.501Z,0.43
2022-10-22T10:18:14.828Z,0.60
2022-10-22T10:20:57.304Z,0.88
2022-10-22T10:24:07.908Z,0.60
2022-10-22T10:26:41.022Z,0.80
2022-10-22T10:29:30.713Z,0.77
2022-10-22T10:32:23.740Z,0.85
2022-10-22T10:35:03.592Z,0.90
2022-10-22T10:37:38.395Z,0.80
2022-10-22T10:40:30.866Z,0.90
2022-10-22T10:43:24.034Z,0.90
2022-10-22T10:46:07.825Z,0.82
2022-10-22T10:48:54.073Z,1.15
2022-10-22T10:51:45.679Z,1.10
2022-10-22T10:54:25.132Z,0.80
2022-10-22T10:56:54.915Z,0.90
2022-10-22T10:59:34.192Z,1.10
2022-10-22T11:02:33.703Z,1.02
2022-10-22T11:05:20.860Z,1.10
2022-10-22T11:08:01.747Z,1.05
2022-10-22T11:10:37.750Z,1.20
2022-10-22T11:13:31.924Z,1.08
2022-10-22T11:16:07.901Z,0.93
2022-10-22T11:18:44.041Z,1.00
2022-10-22T11:21:27.090Z,0.70
2022-10-22T11:24:02.184Z,1.00
2022-10-22T11:26:45.110Z,0.90
2022-10-22T11:29:16.285Z,1.00
2022-10-22T11:31:44.497Z,1.10
2022-10-22T11:34:35.309Z,1.00
2022-10-22T11:37:04.132Z,1.02
2022-10-22T11:39:40.364Z,0.93
2022-10-22T11:42:12.022Z,0.90
2022-10-22T11:45:13.600Z,1.00
2022-10-22T11:48:10.763Z,1.08
2022-10-22T11:50:47.250Z,1.00
2022-10-22T11:53:13.952Z,0.82
2022-10-22T11:55:47.964Z,1.10
2022-10-22T11:58:35.917Z,0.80
2022-10-22T12:01:02.558Z,0.90
2022-10-22T12:03:32.044Z,0.98
2022-10-22T12:06:15.383Z,0.90
2022-10-22T12:08:54.430Z,1.17
2022-10-22T12:11:49.511Z,0.82
2022-10-22T12:14:26.694Z,0.95
2022-10-22T12:17:08.680Z,0.65
2022-10-22T12:19:40.445Z,0.90
2022-10-22T12:22:09.843Z,0.88
2022-10-22T12:24:46.816Z,1.10
2022-10-22T12:27:30.032Z,1.05
2022-10-22T12:29:58.746Z,1.00
2022-10-22T12:32:37.332Z,0.70
2022-10-22T12:35:07.900Z,0.95
2022-10-22T12:37:38.217Z,1.08
2022-10-22T12:40:35.126Z,1.05
2022-10-22T12:43:13.636Z,1.52
2022-10-22T12:45:42.797Z,0.85
2022-10-22T12:48:23.837Z,0.95
2022-10-22T12:50:58.526Z,1.15
2022-10-22T12:53:32.884Z,0.95
2022-10-22T12:56:10.832Z,0.77
2022-10-22T12:58:44.468Z,0.88
2022-10-22T13:01:14.072Z,0.70
2022-10-22T13:03:44.715Z,0.90
2022-10-22T13:06:20.345Z,0.75
2022-10-22T13:09:16.438Z,1.00
2022-10-22T13:11:51.484Z,0.80
2022-10-22T13:14:37.429Z,0.90
2022-10-22T13:17:17.042Z,0.93
2022-10-22T13:19:49.466Z,0.70
2022-10-22T13:22:53.089Z,0.77
2022-10-22T13:25:24.539Z,0.70
2022-10-22T13:28:13.034Z,0.85
2022-10-22T13:30:53.041Z,0.80
2022-10-22T13:33:43.114Z,0.60
2022-10-22T13:36:14.475Z,0.80
2022-10-22T13:38:42.008Z,0.75
2022-10-22T13:41:26.922Z,0.70
2022-10-22T13:43:54.719Z,0.80
2022-10-22T13:46:23.081Z,0.88
2022-10-22T13:48:52.754Z,1.10
2022-10-22T13:51:37.400Z,1.00
2022-10-22T13:54:10.203Z,0.68
2022-10-22T13:56:36.950Z,0.90
2022-10-22T13:59:03.694Z,0.70
2022-10-22T14:01:30.652Z,0.50
2022-10-22T14:03:59.547Z,1.00
2022-10-22T14:06:29.838Z,0.70
2022-10-22T14:09:02.410Z,0.85
2022-10-22T14:11:31.344Z,0.82
2022-10-22T14:13:58.679Z,0.90
2022-10-22T14:16:28.065Z,0.70
2022-10-22T14:18:56.213Z,0.80
2022-10-22T14:21:23.433Z,0.88
2022-10-22T14:23:51.636Z,1.00
2022-10-22T14:26:32.801Z,0.85
2022-10-22T14:29:15.691Z,0.75
2022-10-22T14:31:44.508Z,1.00
2022-10-22T14:34:13.615Z,0.60
2022-10-22T14:36:40.410Z,1.17
2022-10-22T14:39:07.157Z,0.90
2022-10-22T14:41:34.132Z,1.10
2022-10-22T14:44:01.728Z,0.80
2022-10-22T14:46:28.434Z,1.00
2022-10-22T14:48:55.117Z,1.30
2022-10-22T14:51:22.049Z,0.90
2022-10-22T14:53:49.224Z,0.90
2022-10-22T14:56:21.277Z,1.23
2022-10-22T14:58:48.982Z,0.90
2022-10-22T15:01:15.808Z,1.10
2022-10-22T15:03:42.607Z,1.05
2022-10-22T15:06:09.317Z,1.00
2022-10-22T15:08:36.239Z,0.75
2022-10-22T15:11:02.934Z,0.80
2022-10-22T15:13:30.546Z,0.60
2022-10-22T15:15:58.249Z,0.75
2022-10-22T15:18:25.887Z,0.85
2022-10-22T15:21:00.191Z,0.90
2022-10-22T15:23:27.437Z,1.00
2022-10-22T15:25:54.364Z,0.80
2022-10-22T15:28:21.559Z,0.70
2022-10-22T15:30:59.672Z,0.73
2022-10-22T15:33:28.484Z,0.77
2022-10-22T15:35:56.138Z,0.80
2022-10-22T15:41:08.624Z,0.90
2022-10-22T15:43:35.841Z,0.82
2022-10-22T15:46:13.833Z,1.40
2022-10-22T15:48:40.595Z,0.90
2022-10-22T15:51:18.291Z,1.17
2022-10-22T15:56:12.864Z,2.80
2022-10-22T15:58:39.509Z,1.90
2022-10-22T16:01:08.458Z,1.77
2022-10-22T16:03:35.617Z,2.50
2022-10-22T16:06:02.988Z,1.98
2022-10-22T16:08:29.999Z,2.67
2022-10-22T16:10:56.843Z,2.58
2022-10-22T16:13:24.773Z,2.70
2022-10-22T16:15:52.056Z,3.05
2022-10-22T16:18:20.176Z,3.10
2022-10-22T16:20:46.947Z,2.60
2022-10-22T16:23:15.531Z,2.80
2022-10-22T16:25:42.807Z,2.42
2022-10-22T16:28:10.974Z,2.40
2022-10-22T16:30:38.391Z,2.00
2022-10-22T16:33:06.734Z,2.22
2022-10-22T16:35:33.446Z,3.42
2022-10-22T16:38:00.250Z,3.25
2022-10-22T16:40:27.091Z,3.10
2022-10-22T16:42:53.733Z,3.83
2022-10-22T16:45:20.388Z,2.70
2022-10-22T16:47:48.427Z,2.72
2022-10-22T16:50:16.252Z,3.22
2022-10-22T16:52:42.976Z,3.63
2022-10-22T16:55:09.774Z,3.50
2022-10-22T16:57:36.469Z,3.80
2022-10-22T17:00:05.209Z,4.88
2022-10-22T17:02:32.191Z,4.57
2022-10-22T17:04:58.890Z,3.85
2022-10-22T17:07:25.637Z,3.35
2022-10-22T17:09:52.366Z,3.92
2022-10-22T17:12:19.043Z,3.70
2022-10-22T17:14:45.776Z,4.32
2022-10-22T17:17:12.530Z,4.03
2022-10-22T17:19:39.362Z,4.05
2022-10-22T17:22:06.100Z,3.80
2022-10-22T17:24:32.832Z,3.67
2022-10-22T17:26:59.597Z,3.22
2022-10-22T17:29:26.307Z,4.70
2022-10-22T17:31:53.110Z,6.07
2022-10-22T17:34:19.869Z,6.53
2022-10-22T17:36:46.571Z,7.25
2022-10-22T17:39:17.760Z,7.88
2022-10-22T17:41:45.888Z,7.73
2022-10-22T17:44:13.533Z,8.07
2022-10-22T17:46:40.579Z,6.43
2022-10-22T17:49:18.311Z,6.73
2022-10-22T17:51:45.794Z,7.67
2022-10-22T17:54:13.838Z,10.13
2022-10-22T17:56:41.166Z,11.20
2022-10-22T17:59:10.499Z,22.83
2022-10-22T18:01:43.270Z,30.20
2022-10-22T18:04:13.185Z,19.53
2022-10-22T18:06:40.169Z,15.23
2022-10-22T18:09:08.598Z,12.03
2022-10-22T18:11:39.122Z,11.37
2022-10-22T18:14:06.159Z,10.47
2022-10-22T18:16:32.848Z,8.90
2022-10-22T18:19:00.310Z,8.87
2022-10-22T18:21:28.995Z,9.07
2022-10-22T18:23:57.260Z,12.57
2022-10-22T18:26:26.679Z,11.30
2022-10-22T18:28:54.490Z,14.27
2022-10-22T18:31:23.301Z,11.73
2022-10-22T18:33:50.156Z,11.27
2022-10-22T18:36:20.354Z,12.73
2022-10-22T18:38:51.720Z,7.53
2022-10-22T18:41:19.529Z,9.67
2022-10-22T18:43:53.005Z,8.10
2022-10-22T18:46:20.086Z,8.90
2022-10-22T18:48:47.139Z,8.63
2022-10-22T18:51:15.215Z,6.43
2022-10-22T18:53:44.170Z,6.10
2022-10-22T18:56:13.372Z,5.70
2022-10-22T18:58:41.520Z,4.57
2022-10-22T19:01:13.800Z,5.97
2022-10-22T19:03:41.119Z,5.80
2022-10-22T19:06:08.087Z,5.27
2022-10-22T19:08:36.299Z,5.03
2022-10-22T19:11:09.901Z,5.23
2022-10-22T19:13:37.049Z,5.57
2022-10-22T19:16:06.349Z,4.63
2022-10-22T19:18:33.533Z,3.63
2022-10-22T19:21:01.878Z,4.10
2022-10-22T19:23:32.458Z,4.10
2022-10-22T19:26:14.747Z,3.33
2022-10-22T19:28:41.769Z,3.77
2022-10-22T19:31:11.427Z,7.87
2022-10-22T19:33:38.935Z,8.53
2022-10-22T19:36:12.709Z,8.90
2022-10-22T19:38:41.126Z,8.57
2022-10-22T19:41:12.508Z,10.03
2022-10-22T19:43:40.449Z,13.47
2022-10-22T19:46:10.042Z,10.63
2022-10-22T19:48:37.591Z,9.70
2022-10-22T19:51:09.331Z,9.10
2022-10-22T19:53:37.998Z,9.73
2022-10-22T19:56:07.313Z,9.53
2022-10-22T19:58:34.984Z,8.70
2022-10-22T20:01:11.006Z,8.50
2022-10-22T20:03:38.524Z,7.57
2022-10-22T20:06:07.490Z,6.93
2022-10-22T20:08:37.827Z,5.63
2022-10-22T20:11:07.070Z,5.00
2022-10-22T20:13:35.174Z,5.47
2022-10-22T20:16:02.109Z,4.67
2022-10-22T20:18:28.963Z,4.90
2022-10-22T20:20:57.523Z,5.30
2022-10-22T20:23:24.184Z,5.97
2022-10-22T20:25:50.865Z,7.87
2022-10-22T20:28:17.536Z,7.60
2022-10-22T20:30:45.499Z,7.83
2022-10-22T20:33:13.003Z,8.33
2022-10-22T20:35:39.805Z,7.87
2022-10-22T20:38:08.083Z,6.23
2022-10-22T20:40:36.308Z,5.40
2022-10-22T20:43:03.204Z,6.20
2022-10-22T20:45:29.974Z,5.43
2022-10-22T20:48:02.618Z,5.03
2022-10-22T20:50:32.028Z,5.50
2022-10-22T20:52:59.462Z,5.60
2022-10-22T20:55:27.247Z,7.75
2022-10-22T20:57:54.081Z,9.80
2022-10-22T21:00:20.976Z,8.87
2022-10-22T21:02:47.692Z,9.07
2022-10-22T21:05:14.373Z,7.10
2022-10-22T21:07:41.517Z,7.47
2022-10-22T21:10:08.547Z,6.77
2022-10-22T21:12:35.424Z,6.13
2022-10-22T21:15:02.251Z,6.33
2022-10-22T21:17:29.087Z,7.03
2022-10-22T21:19:55.776Z,6.60
2022-10-22T21:22:22.451Z,6.53
2022-10-22T21:24:49.119Z,5.93
2022-10-22T21:27:15.801Z,5.67
2022-10-22T21:29:42.557Z,5.10
2022-10-22T21:32:09.378Z,5.30
2022-10-22T21:34:38.840Z,4.97
2022-10-22T21:37:05.989Z,5.07
2022-10-22T21:39:32.708Z,5.90
2022-10-22T21:41:59.418Z,7.77
2022-10-22T21:44:26.088Z,7.20
2022-10-22T21:46:53.136Z,8.20
2022-10-22T21:49:19.802Z,8.23
2022-10-22T21:51:46.632Z,6.60
2022-10-22T21:54:13.425Z,5.73
2022-10-22T21:56:40.468Z,5.50
2022-10-22T21:59:07.904Z,5.90
2022-10-22T22:01:35.614Z,5.60
2022-10-22T22:04:03.124Z,6.47
2022-10-22T22:06:33.357Z,5.77
2022-10-22T22:09:01.802Z,5.47
2022-10-22T22:11:29.557Z,6.43
2022-10-22T22:13:57.800Z,6.23
2022-10-22T22:16:30.546Z,6.33
2022-10-22T22:18:59.478Z,5.90
2022-10-22T22:21:26.494Z,5.97
2022-10-22T22:23:53.303Z,6.83
2022-10-22T22:26:25.472Z,6.20
2022-10-22T22:28:55.673Z,5.97
2022-10-22T22:31:25.095Z,6.30
2022-10-22T22:33:58.222Z,6.37
2022-10-22T22:36:25.021Z,6.13
2022-10-22T22:38:56.028Z,6.33
2022-10-22T22:41:23.192Z,7.00
2022-10-22T22:43:50.179Z,7.23
2022-10-22T22:46:17.325Z,7.80
2022-10-22T22:48:44.498Z,7.13
2022-10-22T22:51:11.543Z,6.80
2022-10-22T22:53:38.320Z,7.30
2022-10-22T22:56:09.663Z,7.83
2022-10-22T22:58:38.309Z,6.77
2022-10-22T23:01:20.732Z,6.70
2022-10-22T23:03:55.402Z,7.83
2022-10-22T23:06:22.650Z,6.63
2022-10-22T23:08:52.067Z,7.10
2022-10-22T23:11:20.591Z,6.70
2022-10-22T23:13:47.839Z,7.00
2022-10-22T23:16:19.937Z,6.77
2022-10-22T23:18:47.932Z,6.60
2022-10-22T23:21:20.872Z,6.60
2022-10-22T23:23:53.512Z,6.50
2022-10-22T23:26:23.598Z,6.07
2022-10-22T23:28:50.755Z,6.47
2022-10-22T23:31:19.423Z,6.47
2022-10-22T23:33:46.614Z,5.60
2022-10-22T23:36:13.743Z,5.73
2022-10-22T23:38:41.322Z,6.27
2022-10-22T23:41:08.500Z,7.17
2022-10-22T23:43:38.017Z,5.70
2022-10-22T23:46:09.585Z,6.53
2022-10-22T23:48:36.837Z,6.30
2022-10-22T23:51:05.802Z,6.27
2022-10-22T23:56:17.695Z,5.90
2022-10-22T23:58:44.814Z,5.57
